createdAt,value
2024-01-30T00:01:22.757Z,10.55
2024-01-30T00:03:52.079Z,10.50
2024-01-30T00:06:22.553Z,10.30
2024-01-30T00:08:51.078Z,10.88
2024-01-30T00:11:19.058Z,11.38
2024-01-30T00:13:46.817Z,11.05
2024-01-30T00:16:22.373Z,11.55
2024-01-30T00:18:50.382Z,11.82
2024-01-30T00:21:18.158Z,9.02
2024-01-30T00:23:47.357Z,11.32
2024-01-30T00:26:16.080Z,12.18
2024-01-30T00:28:44.277Z,11.77
2024-01-30T00:31:13.478Z,9.80
2024-01-30T00:33:41.767Z,12.60
2024-01-30T00:36:10.205Z,12.32
2024-01-30T00:38:38.110Z,10.95
2024-01-30T00:41:07.368Z,12.27
2024-01-30T00:43:35.190Z,12.02
2024-01-30T00:46:03.064Z,10.93
2024-01-30T00:48:31.141Z,11.65
2024-01-30T00:50:58.905Z,13.57
2024-01-30T00:53:26.671Z,12.23
2024-01-30T00:55:54.550Z,10.85
2024-01-30T00:58:23.835Z,10.80
2024-01-30T01:00:51.721Z,15.82
2024-01-30T01:03:19.696Z,10.68
2024-01-30T01:05:47.692Z,10.20
2024-01-30T01:08:16.209Z,10.60
2024-01-30T01:10:44.038Z,10.45
2024-01-30T01:13:11.899Z,13.05
2024-01-30T01:15:41.128Z,11.18
2024-01-30T01:18:08.935Z,13.02
2024-01-30T01:20:37.408Z,9.32
2024-01-30T01:23:05.424Z,14.02
2024-01-30T01:25:33.262Z,11.98
2024-01-30T01:28:03.687Z,13.13
2024-01-30T01:30:31.611Z,11.48
2024-01-30T01:33:03.495Z,10.82
2024-01-30T01:35:31.454Z,9.82
2024-01-30T01:38:00.844Z,12.50
2024-01-30T01:40:33.165Z,13.32
2024-01-30T01:43:00.938Z,11.45
2024-01-30T01:45:28.768Z,12.02
2024-01-30T01:47:56.856Z,10.27
2024-01-30T01:50:26.734Z,12.43
2024-01-30T01:52:55.241Z,11.98
2024-01-30T01:55:25.459Z,12.90
2024-01-30T01:57:55.559Z,12.10
2024-01-30T02:00:23.678Z,11.90
2024-01-30T02:02:51.911Z,9.13
2024-01-30T02:05:20.677Z,12.93
2024-01-30T02:07:50.081Z,11.05
2024-01-30T02:10:18.020Z,13.80
2024-01-30T02:12:45.693Z,11.57
2024-01-30T02:15:15.671Z,17.77
2024-01-30T02:17:44.086Z,9.98
2024-01-30T02:20:12.485Z,12.52
2024-01-30T02:22:42.166Z,11.15
2024-01-30T02:25:10.344Z,12.88
2024-01-30T02:27:37.217Z,9.95
2024-01-30T02:30:05.241Z,10.75
2024-01-30T02:32:32.925Z,11.23
2024-01-30T02:35:00.799Z,13.32
2024-01-30T02:37:28.591Z,8.80
2024-01-30T02:39:57.680Z,11.45
2024-01-30T02:42:24.362Z,10.38
2024-01-30T02:44:52.040Z,10.52
2024-01-30T02:47:19.729Z,10.63
2024-01-30T02:49:47.411Z,10.38
2024-01-30T02:52:15.113Z,11.25
2024-01-30T02:54:42.898Z,13.18
2024-01-30T02:57:12.791Z,9.15
2024-01-30T02:59:40.431Z,12.52
2024-01-30T03:02:08.220Z,10.38
2024-01-30T03:04:35.939Z,11.82
2024-01-30T03:07:04.698Z,9.70
2024-01-30T03:09:32.416Z,9.75
2024-01-30T03:12:00.072Z,11.57
2024-01-30T03:14:29.276Z,9.63
2024-01-30T03:16:56.921Z,19.23
2024-01-30T03:19:24.772Z,10.52
2024-01-30T03:21:52.501Z,12.80
2024-01-30T03:24:20.158Z,14.15
2024-01-30T03:26:47.869Z,11.70
2024-01-30T03:29:15.624Z,12.10
2024-01-30T03:31:44.630Z,12.80
2024-01-30T03:34:12.392Z,12.43
2024-01-30T03:36:40.635Z,10.07
2024-01-30T03:39:08.386Z,12.80
2024-01-30T03:41:36.074Z,12.00
2024-01-30T03:44:03.919Z,12.90
2024-01-30T03:46:31.607Z,10.73
2024-01-30T03:49:00.669Z,11.13
2024-01-30T03:51:28.418Z,10.07
2024-01-30T03:53:56.036Z,12.68
2024-01-30T03:56:23.719Z,10.90
2024-01-30T03:58:51.389Z,11.15
2024-01-30T04:01:19.300Z,11.05
2024-01-30T04:03:47.176Z,11.27
2024-01-30T04:06:16.399Z,11.20
2024-01-30T04:08:44.224Z,13.30
2024-01-30T04:11:11.913Z,12.07
2024-01-30T04:13:39.601Z,12.43
2024-01-30T04:16:08.494Z,13.40
2024-01-30T04:18:36.220Z,11.10
2024-01-30T04:21:03.924Z,11.07
2024-01-30T04:23:32.935Z,8.07
2024-01-30T04:26:00.575Z,13.65
2024-01-30T04:28:28.446Z,10.40
2024-01-30T04:30:56.214Z,14.70
2024-01-30T04:33:23.861Z,13.32
2024-01-30T04:35:51.536Z,12.40
2024-01-30T04:38:19.144Z,16.10
2024-01-30T04:40:48.137Z,11.55
2024-01-30T04:43:15.843Z,11.65
2024-01-30T04:45:43.874Z,14.05
2024-01-30T04:48:11.532Z,12.57
2024-01-30T04:50:39.498Z,10.20
2024-01-30T04:53:07.164Z,11.25
2024-01-30T04:55:35.089Z,9.77
2024-01-30T04:58:04.360Z,13.75
2024-01-30T05:00:32.020Z,11.07
2024-01-30T05:02:59.665Z,12.13
2024-01-30T05:05:27.304Z,11.63
2024-01-30T05:07:55.292Z,12.18
2024-01-30T05:10:23.042Z,10.93
2024-01-30T05:12:50.712Z,13.70
2024-01-30T05:15:19.738Z,11.82
2024-01-30T05:17:47.413Z,17.13
2024-01-30T05:20:15.314Z,8.20
2024-01-30T05:22:46.261Z,10.98
2024-01-30T05:25:14.621Z,9.00
2024-01-30T05:27:42.373Z,13.27
2024-01-30T05:30:10.582Z,13.30
2024-01-30T05:32:39.733Z,12.68
2024-01-30T05:35:08.950Z,10.68
2024-01-30T05:37:36.827Z,10.07
2024-01-30T05:40:04.875Z,9.95
2024-01-30T05:42:32.522Z,11.98
2024-01-30T05:45:00.287Z,11.30
2024-01-30T05:47:28.026Z,13.48
2024-01-30T05:49:57.039Z,14.90
2024-01-30T05:52:24.818Z,13.35
2024-01-30T05:54:52.566Z,12.60
2024-01-30T05:57:20.606Z,12.13
2024-01-30T05:59:48.833Z,11.35
2024-01-30T06:02:16.730Z,13.40
2024-01-30T06:04:45.656Z,13.52
2024-01-30T06:07:14.844Z,13.10
2024-01-30T06:09:43.179Z,9.95
2024-01-30T06:12:12.867Z,11.35
2024-01-30T06:14:41.955Z,9.95
2024-01-30T06:17:13.078Z,14.38
2024-01-30T06:19:40.949Z,10.65
2024-01-30T06:22:08.803Z,10.57
2024-01-30T06:24:37.802Z,10.75
2024-01-30T06:27:05.562Z,10.73
2024-01-30T06:29:33.266Z,9.50
2024-01-30T06:32:01.517Z,11.13
2024-01-30T06:34:29.397Z,11.43
2024-01-30T06:36:57.202Z,10.98
2024-01-30T06:39:25.087Z,12.60
2024-01-30T06:41:54.108Z,10.02
2024-01-30T06:44:24.437Z,9.80
2024-01-30T06:46:52.097Z,10.27
2024-01-30T06:49:19.938Z,9.38
2024-01-30T06:51:48.043Z,11.38
2024-01-30T06:54:16.319Z,10.52
2024-01-30T06:56:44.537Z,10.98
2024-01-30T06:59:13.560Z,10.65
2024-01-30T07:01:41.465Z,12.25
2024-01-30T07:04:09.260Z,8.45
2024-01-30T07:06:37.005Z,12.43
2024-01-30T07:09:08.582Z,7.50
2024-01-30T07:11:36.285Z,9.48
2024-01-30T07:14:04.911Z,10.52
2024-01-30T07:16:33.964Z,13.63
2024-01-30T07:19:04.340Z,10.95
2024-01-30T07:21:32.069Z,11.20
2024-01-30T07:23:59.740Z,9.77
2024-01-30T07:26:27.414Z,11.35
2024-01-30T07:28:55.034Z,12.27
2024-01-30T07:31:24.457Z,9.60
2024-01-30T07:33:54.402Z,9.88
2024-01-30T07:36:23.036Z,12.27
2024-01-30T07:38:50.701Z,11.20
2024-01-30T07:41:18.336Z,9.90
2024-01-30T07:43:46.242Z,12.73
2024-01-30T07:46:14.413Z,16.45
2024-01-30T07:48:42.439Z,10.98
2024-01-30T07:51:11.523Z,16.13
2024-01-30T07:53:39.178Z,10.77
2024-01-30T07:56:08.019Z,12.02
2024-01-30T07:58:35.958Z,9.70
2024-01-30T08:01:04.324Z,13.38
2024-01-30T08:03:32.081Z,11.88
2024-01-30T08:05:59.872Z,11.60
2024-01-30T08:08:29.363Z,12.93
2024-01-30T08:10:57.174Z,11.27
2024-01-30T08:13:24.995Z,14.15
2024-01-30T08:15:56.233Z,12.65
2024-01-30T08:18:24.045Z,9.73
2024-01-30T08:20:52.980Z,13.20
2024-01-30T08:23:20.696Z,14.43
2024-01-30T08:25:49.774Z,13.80
2024-01-30T08:28:18.870Z,12.45
2024-01-30T08:30:48.098Z,11.13
2024-01-30T08:33:15.892Z,10.68
2024-01-30T08:35:43.608Z,17.00
2024-01-30T08:38:13.582Z,11.80
2024-01-30T08:40:41.402Z,12.40
2024-01-30T08:43:11.438Z,12.85
2024-01-30T08:45:39.180Z,14.00
2024-01-30T08:48:07.713Z,13.10
2024-01-30T08:50:35.661Z,17.88
2024-01-30T08:53:03.921Z,19.15
2024-01-30T08:55:31.715Z,14.55
2024-01-30T08:58:00.079Z,17.77
2024-01-30T09:00:29.309Z,16.75
2024-01-30T09:02:57.033Z,21.38
2024-01-30T09:05:24.733Z,16.40
2024-01-30T09:07:52.546Z,18.73
2024-01-30T09:10:21.498Z,17.67
2024-01-30T09:12:50.740Z,12.30
2024-01-30T09:15:18.504Z,16.38
2024-01-30T09:17:47.900Z,14.15
2024-01-30T09:20:15.775Z,11.73
2024-01-30T09:22:43.442Z,12.43
2024-01-30T09:25:11.336Z,12.27
2024-01-30T09:27:39.095Z,10.40
2024-01-30T09:30:07.688Z,9.68
2024-01-30T09:32:35.491Z,8.90
2024-01-30T09:35:04.808Z,17.33
2024-01-30T09:37:33.231Z,9.95
2024-01-30T09:40:01.096Z,6.13
2024-01-30T09:42:30.175Z,3.92
2024-01-30T09:44:58.339Z,4.78
2024-01-30T09:47:26.620Z,4.18
2024-01-30T09:49:54.578Z,5.85
2024-01-30T09:52:23.737Z,4.60
2024-01-30T09:54:53.429Z,7.22
2024-01-30T09:57:22.092Z,5.70
2024-01-30T09:59:49.741Z,4.20
2024-01-30T10:02:17.875Z,6.68
2024-01-30T10:04:45.733Z,2.63
2024-01-30T10:07:13.927Z,7.00
2024-01-30T10:09:43.024Z,3.92
2024-01-30T10:12:11.282Z,3.53
2024-01-30T10:14:40.312Z,7.88
2024-01-30T10:17:14.876Z,3.97
2024-01-30T10:19:49.414Z,5.15
2024-01-30T10:22:17.248Z,3.72
2024-01-30T10:24:46.827Z,3.13
2024-01-30T10:27:14.512Z,4.20
2024-01-30T10:29:42.133Z,2.65
2024-01-30T10:32:10.314Z,4.30
2024-01-30T10:34:38.329Z,5.35
2024-01-30T10:37:13.781Z,3.33
2024-01-30T10:39:42.085Z,2.67
2024-01-30T10:42:13.702Z,1.80
2024-01-30T10:44:50.663Z,2.22
2024-01-30T10:47:20.986Z,4.75
2024-01-30T10:49:48.946Z,4.18
2024-01-30T10:52:18.119Z,2.70
2024-01-30T10:54:46.746Z,1.67
2024-01-30T10:57:17.815Z,2.28
2024-01-30T10:59:45.892Z,3.72
2024-01-30T11:02:14.254Z,1.08
2024-01-30T11:04:43.382Z,0.90
2024-01-30T11:07:17.978Z,1.92
2024-01-30T11:09:55.451Z,4.43
2024-01-30T11:12:30.997Z,2.40
2024-01-30T11:15:06.321Z,3.75
2024-01-30T11:20:01.488Z,3.38
2024-01-30T11:22:32.641Z,0.50
2024-01-30T11:25:00.751Z,7.45
2024-01-30T11:27:32.602Z,0.90
2024-01-30T11:30:03.152Z,3.00
2024-01-30T11:32:30.855Z,0.85
2024-01-30T11:34:59.694Z,3.38
2024-01-30T11:37:28.774Z,5.78
2024-01-30T11:39:57.542Z,0.55
2024-01-30T11:42:26.940Z,2.70
2024-01-30T11:44:55.995Z,1.80
2024-01-30T11:47:24.619Z,1.08
2024-01-30T11:49:52.344Z,0.35
2024-01-30T11:52:20.050Z,4.40
2024-01-30T11:54:47.778Z,5.18
2024-01-30T11:57:15.557Z,4.18
2024-01-30T11:59:43.167Z,2.22
2024-01-30T12:02:17.398Z,2.50
2024-01-30T12:04:45.211Z,2.95
2024-01-30T12:07:13.245Z,0.65
2024-01-30T12:09:40.985Z,1.65
2024-01-30T12:12:12.894Z,5.15
2024-01-30T12:14:41.769Z,0.57
2024-01-30T12:17:10.622Z,3.00
2024-01-30T12:19:39.777Z,3.42
2024-01-30T12:22:07.494Z,2.33
2024-01-30T12:24:35.310Z,0.75
2024-01-30T12:27:02.998Z,1.52
2024-01-30T12:29:36.385Z,2.20
2024-01-30T12:32:09.769Z,1.33
2024-01-30T12:34:54.094Z,1.27
2024-01-30T12:37:28.077Z,3.85
2024-01-30T12:39:56.349Z,1.20
2024-01-30T12:42:24.084Z,1.70
2024-01-30T12:44:50.900Z,0.57
2024-01-30T12:47:18.566Z,2.90
2024-01-30T12:49:47.613Z,1.65
2024-01-30T12:52:15.706Z,2.63
2024-01-30T12:54:43.408Z,3.05
2024-01-30T12:57:11.729Z,4.30
2024-01-30T12:59:42.370Z,6.53
2024-01-30T13:02:10.092Z,4.32
2024-01-30T13:04:38.038Z,1.55
2024-01-30T13:07:07.194Z,3.45
2024-01-30T13:09:34.963Z,2.83
2024-01-30T13:12:03.157Z,2.88
2024-01-30T13:14:30.853Z,3.47
2024-01-30T13:16:58.711Z,2.97
2024-01-30T13:19:26.419Z,1.60
2024-01-30T13:21:54.185Z,2.22
2024-01-30T13:24:23.462Z,2.17
2024-01-30T13:26:51.111Z,1.25
2024-01-30T13:29:18.790Z,2.65
2024-01-30T13:31:47.923Z,4.03
2024-01-30T13:34:16.029Z,2.50
2024-01-30T13:36:44.336Z,5.97
2024-01-30T13:39:13.805Z,1.02
2024-01-30T13:41:43.341Z,0.75
2024-01-30T13:44:11.516Z,4.22
2024-01-30T13:46:40.097Z,1.70
2024-01-30T13:49:10.385Z,2.53
2024-01-30T13:51:38.178Z,5.50
2024-01-30T13:54:05.980Z,2.40
2024-01-30T13:56:33.808Z,2.97
2024-01-30T13:59:06.174Z,2.88
2024-01-30T14:01:34.363Z,3.58
2024-01-30T14:04:05.218Z,0.98
2024-01-30T14:06:35.288Z,0.95
2024-01-30T14:09:08.246Z,1.25
2024-01-30T14:11:36.574Z,2.90
2024-01-30T14:14:05.609Z,1.38
2024-01-30T14:16:34.001Z,5.00
2024-01-30T14:19:02.087Z,1.88
2024-01-30T14:21:29.763Z,0.88
2024-01-30T14:23:57.447Z,2.50
2024-01-30T14:26:25.149Z,0.77
2024-01-30T14:28:52.796Z,3.03
2024-01-30T14:31:22.875Z,2.15
2024-01-30T14:33:50.699Z,4.20
2024-01-30T14:36:18.581Z,4.60
2024-01-30T14:38:47.488Z,2.40
2024-01-30T14:41:15.783Z,1.73
2024-01-30T14:43:43.844Z,5.72
2024-01-30T14:46:13.195Z,6.00
2024-01-30T14:48:42.519Z,1.52
2024-01-30T14:51:10.244Z,4.90
2024-01-30T14:53:38.148Z,4.00
2024-01-30T14:56:06.529Z,1.33
2024-01-30T14:58:34.665Z,1.02
2024-01-30T15:01:02.547Z,2.03
2024-01-30T15:03:30.624Z,2.42
2024-01-30T15:05:59.812Z,3.20
2024-01-30T15:08:27.721Z,2.17
2024-01-30T15:10:55.539Z,2.25
2024-01-30T15:13:23.267Z,1.83
2024-01-30T15:15:50.995Z,2.00
2024-01-30T15:18:18.978Z,4.10
2024-01-30T15:20:46.787Z,4.03
2024-01-30T15:23:17.049Z,2.72
2024-01-30T15:25:44.950Z,3.60
2024-01-30T15:28:12.665Z,3.50
2024-01-30T15:30:40.585Z,5.35
2024-01-30T15:33:08.295Z,4.30
2024-01-30T15:35:36.068Z,1.98
2024-01-30T15:38:09.530Z,3.88
2024-01-30T15:40:38.575Z,6.30
2024-01-30T15:43:06.423Z,2.65
2024-01-30T15:45:34.116Z,5.63
2024-01-30T15:48:01.872Z,4.78
2024-01-30T15:50:29.682Z,4.80
2024-01-30T15:52:57.406Z,3.40
2024-01-30T15:55:25.145Z,3.85
2024-01-30T15:57:54.230Z,6.93
2024-01-30T16:00:22.030Z,5.47
2024-01-30T16:02:51.902Z,5.53
2024-01-30T16:05:19.664Z,7.85
2024-01-30T16:07:47.367Z,6.45
2024-01-30T16:10:17.528Z,7.78
2024-01-30T16:12:46.515Z,9.70
2024-01-30T16:15:15.756Z,6.20
2024-01-30T16:17:44.034Z,5.53
2024-01-30T16:20:11.949Z,9.60
2024-01-30T16:22:39.695Z,7.85
2024-01-30T16:25:07.436Z,5.20
2024-01-30T16:27:36.889Z,5.00
2024-01-30T16:30:04.940Z,15.27
2024-01-30T16:32:34.184Z,10.63
2024-01-30T16:35:01.985Z,5.72
2024-01-30T16:37:29.918Z,7.28
2024-01-30T16:39:57.672Z,7.32
2024-01-30T16:42:25.343Z,6.78
2024-01-30T16:44:53.021Z,7.55
2024-01-30T16:47:21.529Z,10.32
2024-01-30T16:49:50.647Z,7.38
2024-01-30T16:52:18.484Z,7.93
2024-01-30T16:54:46.144Z,5.95
2024-01-30T16:57:13.800Z,8.88
2024-01-30T16:59:42.609Z,6.70
2024-01-30T17:02:10.261Z,6.55
2024-01-30T17:04:38.331Z,5.70
2024-01-30T17:07:07.546Z,8.90
2024-01-30T17:09:35.417Z,5.97
2024-01-30T17:12:04.407Z,5.80
2024-01-30T17:14:32.335Z,4.40
2024-01-30T17:17:03.691Z,6.80
2024-01-30T17:19:35.109Z,8.27
2024-01-30T17:22:04.464Z,10.50
2024-01-30T17:24:42.307Z,4.25
2024-01-30T17:27:17.388Z,5.97
2024-01-30T17:29:47.375Z,6.40
2024-01-30T17:32:15.168Z,6.03
2024-01-30T17:34:43.453Z,4.93
2024-01-30T17:37:11.296Z,6.55
2024-01-30T17:39:40.732Z,6.47
2024-01-30T17:42:08.592Z,9.10
2024-01-30T17:44:40.984Z,10.38
2024-01-30T17:47:08.640Z,10.13
2024-01-30T17:49:36.367Z,8.23
2024-01-30T17:52:04.617Z,6.57
2024-01-30T17:54:32.360Z,9.60
2024-01-30T17:57:01.403Z,7.95
2024-01-30T17:59:29.168Z,8.27
2024-01-30T18:01:56.991Z,7.65
2024-01-30T18:04:25.084Z,9.45
2024-01-30T18:06:54.325Z,6.63
2024-01-30T18:09:22.382Z,8.70
2024-01-30T18:11:52.259Z,7.57
2024-01-30T18:14:21.398Z,4.90
2024-01-30T18:16:49.109Z,5.90
2024-01-30T18:19:17.668Z,8.43
2024-01-30T18:21:45.450Z,7.90
2024-01-30T18:24:13.102Z,4.80
2024-01-30T18:26:40.725Z,7.97
2024-01-30T18:29:09.248Z,12.10
2024-01-30T18:31:44.142Z,5.30
2024-01-30T18:34:12.082Z,6.40
2024-01-30T18:36:42.339Z,9.07
2024-01-30T18:39:11.498Z,7.47
2024-01-30T18:41:39.419Z,7.07
2024-01-30T18:44:07.747Z,5.15
2024-01-30T18:46:38.660Z,6.20
2024-01-30T18:49:06.857Z,7.25
2024-01-30T18:51:34.641Z,10.48
2024-01-30T18:54:02.395Z,7.72
2024-01-30T18:56:30.147Z,4.90
2024-01-30T18:59:05.884Z,8.32
2024-01-30T19:01:34.092Z,6.75
2024-01-30T19:04:08.672Z,5.15
2024-01-30T19:06:36.479Z,8.63
2024-01-30T19:09:06.667Z,6.80
2024-01-30T19:11:34.334Z,6.07
2024-01-30T19:14:01.199Z,5.97
2024-01-30T19:16:28.959Z,7.93
2024-01-30T19:18:58.796Z,9.55
2024-01-30T19:21:27.949Z,4.90
2024-01-30T19:24:00.224Z,7.60
2024-01-30T19:26:27.972Z,6.88
2024-01-30T19:28:55.713Z,7.95
2024-01-30T19:31:24.215Z,7.97
2024-01-30T19:33:52.277Z,5.80
2024-01-30T19:36:20.146Z,7.13
2024-01-30T19:38:49.388Z,6.70
2024-01-30T19:41:17.087Z,9.77
2024-01-30T19:43:44.798Z,10.35
2024-01-30T19:46:13.614Z,9.48
2024-01-30T19:48:42.194Z,10.73
2024-01-30T19:51:09.951Z,8.43
2024-01-30T19:53:39.570Z,10.18
2024-01-30T19:56:09.006Z,7.32
2024-01-30T19:58:36.846Z,9.82
2024-01-30T20:01:06.175Z,8.10
2024-01-30T20:03:35.030Z,10.45
2024-01-30T20:06:02.932Z,9.63
2024-01-30T20:08:34.218Z,8.05
2024-01-30T20:11:04.037Z,9.43
2024-01-30T20:13:33.399Z,10.18
2024-01-30T20:16:01.441Z,8.85
2024-01-30T20:18:31.590Z,11.23
2024-01-30T20:20:59.574Z,12.35
2024-01-30T20:23:27.949Z,11.25
2024-01-30T20:25:58.159Z,10.77
2024-01-30T20:28:26.181Z,10.75
2024-01-30T20:30:55.215Z,13.13
2024-01-30T20:33:23.020Z,7.55
2024-01-30T20:35:50.785Z,11.57
2024-01-30T20:38:18.453Z,7.63
2024-01-30T20:40:46.234Z,11.30
2024-01-30T20:43:14.154Z,9.13
2024-01-30T20:45:41.986Z,14.65
2024-01-30T20:48:11.321Z,9.95
2024-01-30T20:50:39.200Z,14.23
2024-01-30T20:53:07.553Z,12.65
2024-01-30T20:55:35.415Z,10.93
2024-01-30T20:58:03.616Z,13.88
2024-01-30T21:00:33.561Z,10.52
2024-01-30T21:03:01.213Z,12.57
2024-01-30T21:05:30.273Z,18.55
2024-01-30T21:07:59.252Z,16.15
2024-01-30T21:10:27.615Z,15.63
2024-01-30T21:12:55.809Z,10.48
2024-01-30T21:15:23.517Z,14.18
2024-01-30T21:17:51.237Z,12.93
2024-01-30T21:20:19.158Z,12.88
2024-01-30T21:22:48.280Z,17.50
2024-01-30T21:25:16.168Z,13.70
2024-01-30T21:27:44.211Z,13.65
2024-01-30T21:30:12.016Z,14.38
2024-01-30T21:32:40.035Z,13.15
2024-01-30T21:35:08.556Z,10.80
2024-01-30T21:37:36.486Z,12.30
2024-01-30T21:40:06.996Z,13.00
2024-01-30T21:42:34.704Z,16.00
2024-01-30T21:45:02.398Z,11.40
2024-01-30T21:47:30.984Z,12.82
2024-01-30T21:49:58.900Z,17.33
2024-01-30T21:52:26.834Z,16.70
2024-01-30T21:54:54.600Z,13.02
2024-01-30T21:57:23.798Z,12.68
2024-01-30T21:59:51.449Z,18.10
2024-01-30T22:02:19.338Z,15.60
2024-01-30T22:04:49.382Z,14.93
2024-01-30T22:07:18.554Z,16.63
2024-01-30T22:09:46.343Z,20.67
2024-01-30T22:12:14.257Z,13.68
2024-01-30T22:14:43.449Z,12.73
2024-01-30T22:17:11.126Z,13.52
2024-01-30T22:19:39.588Z,16.50
2024-01-30T22:22:07.441Z,14.48
2024-01-30T22:24:56.435Z,17.10
2024-01-30T22:27:24.152Z,20.02
2024-01-30T22:29:51.841Z,19.13
2024-01-30T22:32:19.624Z,18.15
2024-01-30T22:34:47.545Z,15.05
2024-01-30T22:37:15.370Z,18.65
2024-01-30T22:39:43.080Z,19.10
2024-01-30T22:42:12.073Z,20.25
2024-01-30T22:44:39.695Z,18.90
2024-01-30T22:47:07.492Z,16.33
2024-01-30T22:49:35.300Z,22.98
2024-01-30T22:52:03.141Z,13.82
2024-01-30T22:54:30.869Z,19.35
2024-01-30T22:56:58.477Z,21.00
2024-01-30T22:59:28.221Z,19.20
2024-01-30T23:01:56.012Z,17.58
2024-01-30T23:04:23.708Z,16.10
2024-01-30T23:06:52.167Z,18.50
2024-01-30T23:09:19.882Z,17.33
2024-01-30T23:11:50.242Z,19.20
2024-01-30T23:14:17.980Z,20.60
2024-01-30T23:16:47.124Z,19.02
2024-01-30T23:19:17.355Z,20.73
2024-01-30T23:21:45.188Z,18.77
2024-01-30T23:24:12.966Z,19.35
2024-01-30T23:26:42.296Z,19.98
2024-01-30T23:29:10.312Z,25.83
2024-01-30T23:31:41.682Z,23.20
2024-01-30T23:34:12.621Z,23.35
2024-01-30T23:36:44.324Z,21.55
2024-01-30T23:39:12.683Z,28.02
2024-01-30T23:41:40.407Z,23.95
2024-01-30T23:44:08.061Z,23.02
2024-01-30T23:46:35.950Z,23.92
2024-01-30T23:49:04.034Z,22.52
2024-01-30T23:51:33.072Z,25.08
2024-01-30T23:54:00.936Z,26.00
2024-01-30T23:56:28.722Z,21.38
2024-01-30T23:59:04.072Z,21.25
